sensor_id;sensor_type;location;lat;lon;timestamp;P1;durP1;ratioP1;P2;durP2;ratioP2
57087;SDS011;42965;52.846;6.614;2023-01-10T00:01:42;18.08;;;3.92;;
57087;SDS011;42965;52.846;6.614;2023-01-10T00:04:08;13.65;;;3.80;;
57087;SDS011;42965;52.846;6.614;2023-01-10T00:06:34;18.88;;;3.45;;
57087;SDS011;42965;52.846;6.614;2023-01-10T00:09:01;16.08;;;3.10;;
57087;SDS011;42965;52.846;6.614;2023-01-10T00:11:27;15.98;;;3.22;;
57087;SDS011;42965;52.846;6.614;2023-01-10T00:14:13;22.50;;;4.78;;
57087;SDS011;42965;52.846;6.614;2023-01-10T00:16:40;13.95;;;3.22;;
57087;SDS011;42965;52.846;6.614;2023-01-10T00:19:07;18.83;;;4.00;;
57087;SDS011;42965;52.846;6.614;2023-01-10T00:21:35;11.10;;;2.97;;
57087;SDS011;42965;52.846;6.614;2023-01-10T00:24:02;15.57;;;3.83;;
57087;SDS011;42965;52.846;6.614;2023-01-10T00:26:42;15.48;;;3.45;;
57087;SDS011;42965;52.846;6.614;2023-01-10T00:29:19;17.33;;;2.92;;
57087;SDS011;42965;52.846;6.614;2023-01-10T00:31:47;15.15;;;3.70;;
57087;SDS011;42965;52.846;6.614;2023-01-10T00:34:13;21.92;;;3.70;;
57087;SDS011;42965;52.846;6.614;2023-01-10T00:36:42;14.85;;;4.15;;
57087;SDS011;42965;52.846;6.614;2023-01-10T00:39:14;15.60;;;4.03;;
57087;SDS011;42965;52.846;6.614;2023-01-10T00:41:43;20.25;;;4.88;;
57087;SDS011;42965;52.846;6.614;2023-01-10T00:44:29;21.15;;;5.53;;
57087;SDS011;42965;52.846;6.614;2023-01-10T00:46:55;23.63;;;5.32;;
57087;SDS011;42965;52.846;6.614;2023-01-10T00:49:22;19.13;;;4.88;;
57087;SDS011;42965;52.846;6.614;2023-01-10T00:51:48;19.33;;;4.82;;
57087;SDS011;42965;52.846;6.614;2023-01-10T00:54:14;20.27;;;4.18;;
57087;SDS011;42965;52.846;6.614;2023-01-10T00:56:40;21.63;;;4.15;;
57087;SDS011;42965;52.846;6.614;2023-01-10T00:59:07;23.60;;;5.90;;
57087;SDS011;42965;52.846;6.614;2023-01-10T01:01:33;18.23;;;4.35;;
57087;SDS011;42965;52.846;6.614;2023-01-10T01:04:00;19.17;;;4.22;;
57087;SDS011;42965;52.846;6.614;2023-01-10T01:06:27;17.23;;;4.35;;
57087;SDS011;42965;52.846;6.614;2023-01-10T01:08:54;26.40;;;4.43;;
57087;SDS011;42965;52.846;6.614;2023-01-10T01:11:21;20.85;;;5.07;;
57087;SDS011;42965;52.846;6.614;2023-01-10T01:13:47;25.73;;;4.57;;
57087;SDS011;42965;52.846;6.614;2023-01-10T01:16:13;22.08;;;4.15;;
57087;SDS011;42965;52.846;6.614;2023-01-10T01:18:41;22.73;;;4.55;;
57087;SDS011;42965;52.846;6.614;2023-01-10T01:21:07;18.92;;;4.45;;
57087;SDS011;42965;52.846;6.614;2023-01-10T01:23:34;20.52;;;5.05;;
57087;SDS011;42965;52.846;6.614;2023-01-10T01:26:01;16.90;;;3.97;;
57087;SDS011;42965;52.846;6.614;2023-01-10T01:28:27;23.67;;;4.57;;
57087;SDS011;42965;52.846;6.614;2023-01-10T01:30:53;20.17;;;4.63;;
57087;SDS011;42965;52.846;6.614;2023-01-10T01:33:19;18.23;;;3.90;;
57087;SDS011;42965;52.846;6.614;2023-01-10T01:35:46;26.17;;;4.78;;
57087;SDS011;42965;52.846;6.614;2023-01-10T01:38:15;18.10;;;3.67;;
57087;SDS011;42965;52.846;6.614;2023-01-10T01:40:43;16.55;;;3.28;;
57087;SDS011;42965;52.846;6.614;2023-01-10T01:45:57;18.52;;;3.92;;
57087;SDS011;42965;52.846;6.614;2023-01-10T01:48:30;19.35;;;4.32;;
57087;SDS011;42965;52.846;6.614;2023-01-10T01:51:08;20.23;;;4.15;;
57087;SDS011;42965;52.846;6.614;2023-01-10T01:56:16;17.80;;;4.32;;
57087;SDS011;42965;52.846;6.614;2023-01-10T01:58:58;14.88;;;3.28;;
57087;SDS011;42965;52.846;6.614;2023-01-10T02:01:44;19.63;;;3.95;;
57087;SDS011;42965;52.846;6.614;2023-01-10T02:04:15;21.85;;;4.47;;
57087;SDS011;42965;52.846;6.614;2023-01-10T02:06:47;17.70;;;3.92;;
57087;SDS011;42965;52.846;6.614;2023-01-10T02:09:27;15.30;;;3.53;;
57087;SDS011;42965;52.846;6.614;2023-01-10T02:12:18;21.35;;;3.88;;
57087;SDS011;42965;52.846;6.614;2023-01-10T02:14:46;16.98;;;4.85;;
57087;SDS011;42965;52.846;6.614;2023-01-10T02:17:15;21.53;;;3.73;;
57087;SDS011;42965;52.846;6.614;2023-01-10T02:30:43;20.05;;;4.03;;
57087;SDS011;42965;52.846;6.614;2023-01-10T02:36:09;17.88;;;3.60;;
57087;SDS011;42965;52.846;6.614;2023-01-10T02:41:41;17.95;;;3.60;;
57087;SDS011;42965;52.846;6.614;2023-01-10T02:47:04;19.92;;;4.25;;
57087;SDS011;42965;52.846;6.614;2023-01-10T02:49:46;18.20;;;3.83;;
57087;SDS011;42965;52.846;6.614;2023-01-10T02:52:18;17.88;;;4.25;;
57087;SDS011;42965;52.846;6.614;2023-01-10T02:54:50;16.30;;;4.03;;
57087;SDS011;42965;52.846;6.614;2023-01-10T03:06:13;20.65;;;4.85;;
57087;SDS011;42965;52.846;6.614;2023-01-10T03:08:58;22.08;;;4.50;;
57087;SDS011;42965;52.846;6.614;2023-01-10T03:11:31;19.95;;;5.00;;
57087;SDS011;42965;52.846;6.614;2023-01-10T03:14:13;22.08;;;5.53;;
57087;SDS011;42965;52.846;6.614;2023-01-10T03:16:47;27.10;;;5.55;;
57087;SDS011;42965;52.846;6.614;2023-01-10T03:19:20;21.95;;;4.03;;
57087;SDS011;42965;52.846;6.614;2023-01-10T03:21:50;19.40;;;5.07;;
57087;SDS011;42965;52.846;6.614;2023-01-10T03:24:25;21.63;;;4.68;;
57087;SDS011;42965;52.846;6.614;2023-01-10T03:30:06;24.73;;;4.32;;
57087;SDS011;42965;52.846;6.614;2023-01-10T03:32:39;17.63;;;4.00;;
57087;SDS011;42965;52.846;6.614;2023-01-10T03:35:07;21.67;;;4.00;;
57087;SDS011;42965;52.846;6.614;2023-01-10T03:37:43;19.88;;;4.40;;
57087;SDS011;42965;52.846;6.614;2023-01-10T03:46:22;23.25;;;4.32;;
57087;SDS011;42965;52.846;6.614;2023-01-10T03:49:13;21.58;;;5.25;;
57087;SDS011;42965;52.846;6.614;2023-01-10T03:51:42;18.58;;;4.90;;
57087;SDS011;42965;52.846;6.614;2023-01-10T03:54:10;18.55;;;4.70;;
57087;SDS011;42965;52.846;6.614;2023-01-10T03:56:49;19.50;;;4.72;;
57087;SDS011;42965;52.846;6.614;2023-01-10T03:59:16;22.73;;;4.85;;
57087;SDS011;42965;52.846;6.614;2023-01-10T04:01:45;22.70;;;4.95;;
57087;SDS011;42965;52.846;6.614;2023-01-10T04:04:14;20.10;;;4.78;;
57087;SDS011;42965;52.846;6.614;2023-01-10T04:06:40;29.27;;;5.70;;
57087;SDS011;42965;52.846;6.614;2023-01-10T04:09:07;22.55;;;5.63;;
57087;SDS011;42965;52.846;6.614;2023-01-10T04:11:33;21.60;;;5.18;;
57087;SDS011;42965;52.846;6.614;2023-01-10T04:14:00;18.70;;;4.57;;
57087;SDS011;42965;52.846;6.614;2023-01-10T04:16:26;21.23;;;5.55;;
57087;SDS011;42965;52.846;6.614;2023-01-10T04:18:52;20.65;;;5.13;;
57087;SDS011;42965;52.846;6.614;2023-01-10T04:21:19;29.48;;;5.75;;
57087;SDS011;42965;52.846;6.614;2023-01-10T04:23:45;27.13;;;5.78;;
57087;SDS011;42965;52.846;6.614;2023-01-10T04:26:11;26.27;;;4.88;;
57087;SDS011;42965;52.846;6.614;2023-01-10T04:28:38;20.70;;;5.00;;
57087;SDS011;42965;52.846;6.614;2023-01-10T04:31:04;22.40;;;5.22;;
57087;SDS011;42965;52.846;6.614;2023-01-10T04:33:30;27.45;;;5.55;;
57087;SDS011;42965;52.846;6.614;2023-01-10T04:35:57;21.83;;;4.95;;
57087;SDS011;42965;52.846;6.614;2023-01-10T04:38:23;19.20;;;4.80;;
57087;SDS011;42965;52.846;6.614;2023-01-10T04:40:55;21.30;;;5.75;;
57087;SDS011;42965;52.846;6.614;2023-01-10T04:43:23;18.58;;;5.35;;
57087;SDS011;42965;52.846;6.614;2023-01-10T04:45:50;16.88;;;4.40;;
57087;SDS011;42965;52.846;6.614;2023-01-10T04:48:16;23.33;;;5.30;;
57087;SDS011;42965;52.846;6.614;2023-01-10T04:50:50;18.63;;;4.90;;
57087;SDS011;42965;52.846;6.614;2023-01-10T04:53:17;25.58;;;5.55;;
57087;SDS011;42965;52.846;6.614;2023-01-10T04:55:43;21.38;;;4.72;;
57087;SDS011;42965;52.846;6.614;2023-01-10T04:58:10;21.65;;;4.80;;
57087;SDS011;42965;52.846;6.614;2023-01-10T05:00:37;24.55;;;4.85;;
57087;SDS011;42965;52.846;6.614;2023-01-10T05:03:03;23.40;;;4.50;;
57087;SDS011;42965;52.846;6.614;2023-01-10T05:05:30;18.20;;;4.78;;
57087;SDS011;42965;52.846;6.614;2023-01-10T05:07:56;19.20;;;4.65;;
57087;SDS011;42965;52.846;6.614;2023-01-10T05:10:23;20.65;;;4.72;;
57087;SDS011;42965;52.846;6.614;2023-01-10T05:12:49;19.80;;;4.63;;
57087;SDS011;42965;52.846;6.614;2023-01-10T05:15:16;17.30;;;5.00;;
57087;SDS011;42965;52.846;6.614;2023-01-10T05:17:42;23.80;;;5.28;;
57087;SDS011;42965;52.846;6.614;2023-01-10T05:20:08;27.05;;;5.18;;
57087;SDS011;42965;52.846;6.614;2023-01-10T05:22:35;25.42;;;4.97;;
57087;SDS011;42965;52.846;6.614;2023-01-10T05:25:02;22.40;;;5.38;;
57087;SDS011;42965;52.846;6.614;2023-01-10T05:27:29;23.70;;;5.30;;
57087;SDS011;42965;52.846;6.614;2023-01-10T05:29:55;20.35;;;4.75;;
57087;SDS011;42965;52.846;6.614;2023-01-10T05:32:21;24.70;;;5.25;;
57087;SDS011;42965;52.846;6.614;2023-01-10T05:34:48;24.55;;;5.07;;
57087;SDS011;42965;52.846;6.614;2023-01-10T05:37:14;23.38;;;5.65;;
57087;SDS011;42965;52.846;6.614;2023-01-10T05:39:41;20.98;;;5.55;;
57087;SDS011;42965;52.846;6.614;2023-01-10T05:42:08;27.23;;;5.32;;
57087;SDS011;42965;52.846;6.614;2023-01-10T05:44:35;28.00;;;6.18;;
57087;SDS011;42965;52.846;6.614;2023-01-10T05:47:01;26.35;;;6.03;;
57087;SDS011;42965;52.846;6.614;2023-01-10T05:49:27;23.52;;;5.45;;
57087;SDS011;42965;52.846;6.614;2023-01-10T05:51:53;31.83;;;6.22;;
57087;SDS011;42965;52.846;6.614;2023-01-10T05:54:20;29.95;;;6.90;;
57087;SDS011;42965;52.846;6.614;2023-01-10T05:56:46;40.63;;;6.90;;
57087;SDS011;42965;52.846;6.614;2023-01-10T05:59:12;33.00;;;6.65;;
57087;SDS011;42965;52.846;6.614;2023-01-10T06:01:38;23.55;;;5.95;;
57087;SDS011;42965;52.846;6.614;2023-01-10T06:04:05;21.63;;;5.78;;
57087;SDS011;42965;52.846;6.614;2023-01-10T06:06:31;21.65;;;6.15;;
57087;SDS011;42965;52.846;6.614;2023-01-10T06:08:59;27.92;;;6.60;;
57087;SDS011;42965;52.846;6.614;2023-01-10T06:11:25;29.17;;;6.82;;
57087;SDS011;42965;52.846;6.614;2023-01-10T06:13:57;20.15;;;5.78;;
57087;SDS011;42965;52.846;6.614;2023-01-10T06:16:23;26.73;;;5.72;;
57087;SDS011;42965;52.846;6.614;2023-01-10T06:18:50;28.50;;;6.10;;
57087;SDS011;42965;52.846;6.614;2023-01-10T06:21:18;29.38;;;5.95;;
57087;SDS011;42965;52.846;6.614;2023-01-10T06:23:45;26.75;;;6.30;;
57087;SDS011;42965;52.846;6.614;2023-01-10T06:26:11;24.58;;;6.15;;
57087;SDS011;42965;52.846;6.614;2023-01-10T06:28:37;36.85;;;8.57;;
57087;SDS011;42965;52.846;6.614;2023-01-10T06:31:08;31.65;;;6.78;;
57087;SDS011;42965;52.846;6.614;2023-01-10T06:33:35;26.17;;;6.32;;
57087;SDS011;42965;52.846;6.614;2023-01-10T06:36:03;27.73;;;6.53;;
57087;SDS011;42965;52.846;6.614;2023-01-10T06:38:30;27.42;;;6.68;;
57087;SDS011;42965;52.846;6.614;2023-01-10T06:40:56;22.60;;;6.30;;
57087;SDS011;42965;52.846;6.614;2023-01-10T06:43:23;35.20;;;9.02;;
57087;SDS011;42965;52.846;6.614;2023-01-10T06:45:50;20.15;;;5.68;;
57087;SDS011;42965;52.846;6.614;2023-01-10T06:48:16;30.63;;;7.13;;
57087;SDS011;42965;52.846;6.614;2023-01-10T06:50:43;31.42;;;6.20;;
57087;SDS011;42965;52.846;6.614;2023-01-10T06:53:09;29.90;;;6.88;;
57087;SDS011;42965;52.846;6.614;2023-01-10T06:55:35;26.02;;;5.90;;
57087;SDS011;42965;52.846;6.614;2023-01-10T06:58:02;26.27;;;6.65;;
57087;SDS011;42965;52.846;6.614;2023-01-10T07:00:29;27.77;;;7.03;;
57087;SDS011;42965;52.846;6.614;2023-01-10T07:02:59;25.83;;;6.82;;
57087;SDS011;42965;52.846;6.614;2023-01-10T07:05:27;25.58;;;6.60;;
57087;SDS011;42965;52.846;6.614;2023-01-10T07:07:54;27.40;;;7.63;;
57087;SDS011;42965;52.846;6.614;2023-01-10T07:10:22;26.63;;;6.45;;
57087;SDS011;42965;52.846;6.614;2023-01-10T07:12:49;30.30;;;6.70;;
57087;SDS011;42965;52.846;6.614;2023-01-10T07:15:15;29.60;;;7.28;;
57087;SDS011;42965;52.846;6.614;2023-01-10T07:17:42;26.73;;;7.22;;
57087;SDS011;42965;52.846;6.614;2023-01-10T07:20:10;35.55;;;8.00;;
57087;SDS011;42965;52.846;6.614;2023-01-10T07:22:36;17.88;;;5.95;;
57087;SDS011;42965;52.846;6.614;2023-01-10T07:25:03;23.48;;;6.93;;
57087;SDS011;42965;52.846;6.614;2023-01-10T07:27:30;22.27;;;7.05;;
57087;SDS011;42965;52.846;6.614;2023-01-10T07:29:57;26.27;;;6.97;;
57087;SDS011;42965;52.846;6.614;2023-01-10T07:32:24;29.55;;;6.63;;
57087;SDS011;42965;52.846;6.614;2023-01-10T07:34:50;23.17;;;6.70;;
57087;SDS011;42965;52.846;6.614;2023-01-10T07:37:17;24.35;;;6.95;;
57087;SDS011;42965;52.846;6.614;2023-01-10T07:39:43;31.52;;;6.70;;
57087;SDS011;42965;52.846;6.614;2023-01-10T07:42:10;23.10;;;5.80;;
57087;SDS011;42965;52.846;6.614;2023-01-10T07:44:37;28.02;;;7.28;;
57087;SDS011;42965;52.846;6.614;2023-01-10T07:47:04;24.98;;;6.47;;
57087;SDS011;42965;52.846;6.614;2023-01-10T07:49:30;30.08;;;7.50;;
57087;SDS011;42965;52.846;6.614;2023-01-10T07:51:57;30.45;;;6.50;;
57087;SDS011;42965;52.846;6.614;2023-01-10T07:54:23;30.92;;;7.95;;
57087;SDS011;42965;52.846;6.614;2023-01-10T07:56:49;25.65;;;6.68;;
57087;SDS011;42965;52.846;6.614;2023-01-10T07:59:16;34.17;;;7.43;;
57087;SDS011;42965;52.846;6.614;2023-01-10T08:01:42;23.13;;;6.03;;
57087;SDS011;42965;52.846;6.614;2023-01-10T08:04:08;28.55;;;7.90;;
57087;SDS011;42965;52.846;6.614;2023-01-10T08:06:34;26.25;;;7.07;;
57087;SDS011;42965;52.846;6.614;2023-01-10T08:09:01;26.00;;;6.75;;
57087;SDS011;42965;52.846;6.614;2023-01-10T08:11:29;27.73;;;7.22;;
57087;SDS011;42965;52.846;6.614;2023-01-10T08:13:55;28.23;;;6.53;;
57087;SDS011;42965;52.846;6.614;2023-01-10T08:16:23;26.73;;;7.35;;
57087;SDS011;42965;52.846;6.614;2023-01-10T08:18:49;27.85;;;6.38;;
57087;SDS011;42965;52.846;6.614;2023-01-10T08:21:15;27.70;;;6.43;;
57087;SDS011;42965;52.846;6.614;2023-01-10T08:23:41;28.20;;;7.00;;
57087;SDS011;42965;52.846;6.614;2023-01-10T08:26:08;25.65;;;6.72;;
57087;SDS011;42965;52.846;6.614;2023-01-10T08:28:34;28.58;;;6.53;;
57087;SDS011;42965;52.846;6.614;2023-01-10T08:31:04;28.13;;;6.78;;
57087;SDS011;42965;52.846;6.614;2023-01-10T08:33:31;22.57;;;5.97;;
57087;SDS011;42965;52.846;6.614;2023-01-10T08:35:58;28.77;;;7.03;;
57087;SDS011;42965;52.846;6.614;2023-01-10T08:38:24;22.13;;;5.93;;
57087;SDS011;42965;52.846;6.614;2023-01-10T08:40:50;29.60;;;6.68;;
57087;SDS011;42965;52.846;6.614;2023-01-10T08:43:17;30.88;;;6.25;;
57087;SDS011;42965;52.846;6.614;2023-01-10T08:45:43;25.33;;;6.28;;
57087;SDS011;42965;52.846;6.614;2023-01-10T08:48:11;25.13;;;6.18;;
57087;SDS011;42965;52.846;6.614;2023-01-10T08:50:37;24.65;;;6.47;;
57087;SDS011;42965;52.846;6.614;2023-01-10T08:53:03;24.48;;;6.20;;
57087;SDS011;42965;52.846;6.614;2023-01-10T08:55:32;22.02;;;5.97;;
57087;SDS011;42965;52.846;6.614;2023-01-10T08:58:00;28.52;;;6.95;;
57087;SDS011;42965;52.846;6.614;2023-01-10T09:00:27;23.35;;;5.40;;
57087;SDS011;42965;52.846;6.614;2023-01-10T09:02:56;24.70;;;6.30;;
57087;SDS011;42965;52.846;6.614;2023-01-10T09:05:22;24.25;;;5.40;;
57087;SDS011;42965;52.846;6.614;2023-01-10T09:07:52;31.15;;;7.00;;
57087;SDS011;42965;52.846;6.614;2023-01-10T09:10:27;26.58;;;6.70;;
57087;SDS011;42965;52.846;6.614;2023-01-10T09:12:54;26.40;;;6.28;;
57087;SDS011;42965;52.846;6.614;2023-01-10T09:15:27;27.83;;;6.50;;
57087;SDS011;42965;52.846;6.614;2023-01-10T09:17:55;26.20;;;6.68;;
57087;SDS011;42965;52.846;6.614;2023-01-10T09:20:23;27.63;;;6.65;;
57087;SDS011;42965;52.846;6.614;2023-01-10T09:22:50;28.55;;;6.50;;
57087;SDS011;42965;52.846;6.614;2023-01-10T09:25:17;24.38;;;5.57;;
57087;SDS011;42965;52.846;6.614;2023-01-10T09:27:43;29.13;;;6.50;;
57087;SDS011;42965;52.846;6.614;2023-01-10T09:30:10;25.02;;;6.15;;
57087;SDS011;42965;52.846;6.614;2023-01-10T09:32:37;19.83;;;6.30;;
57087;SDS011;42965;52.846;6.614;2023-01-10T09:35:03;22.40;;;6.18;;
57087;SDS011;42965;52.846;6.614;2023-01-10T09:37:30;26.65;;;5.97;;
57087;SDS011;42965;52.846;6.614;2023-01-10T09:39:58;26.55;;;5.38;;
57087;SDS011;42965;52.846;6.614;2023-01-10T09:50:13;22.48;;;6.80;;
57087;SDS011;42965;52.846;6.614;2023-01-10T09:53:05;24.52;;;6.45;;
57087;SDS011;42965;52.846;6.614;2023-01-10T09:55:37;20.48;;;5.95;;
57087;SDS011;42965;52.846;6.614;2023-01-10T09:58:14;20.75;;;5.80;;
57087;SDS011;42965;52.846;6.614;2023-01-10T10:00:45;28.35;;;6.90;;
57087;SDS011;42965;52.846;6.614;2023-01-10T10:05:58;27.67;;;6.63;;
57087;SDS011;42965;52.846;6.614;2023-01-10T10:08:24;30.50;;;6.60;;
57087;SDS011;42965;52.846;6.614;2023-01-10T10:19:19;25.27;;;8.10;;
57087;SDS011;42965;52.846;6.614;2023-01-10T10:41:05;29.90;;;10.88;;
57087;SDS011;42965;52.846;6.614;2023-01-10T10:43:42;32.05;;;12.02;;
57087;SDS011;42965;52.846;6.614;2023-01-10T10:46:12;32.92;;;12.20;;
57087;SDS011;42965;52.846;6.614;2023-01-10T10:48:41;27.90;;;12.30;;
57087;SDS011;42965;52.846;6.614;2023-01-10T10:51:22;27.23;;;11.07;;
57087;SDS011;42965;52.846;6.614;2023-01-10T10:53:53;27.80;;;11.07;;
57087;SDS011;42965;52.846;6.614;2023-01-10T10:56:22;29.77;;;10.82;;
57087;SDS011;42965;52.846;6.614;2023-01-10T10:58:51;29.65;;;10.70;;
57087;SDS011;42965;52.846;6.614;2023-01-10T11:01:20;23.98;;;10.18;;
57087;SDS011;42965;52.846;6.614;2023-01-10T11:03:48;28.25;;;10.15;;
57087;SDS011;42965;52.846;6.614;2023-01-10T11:06:22;28.02;;;9.93;;
57087;SDS011;42965;52.846;6.614;2023-01-10T11:08:54;24.52;;;10.32;;
57087;SDS011;42965;52.846;6.614;2023-01-10T11:11:31;28.17;;;10.15;;
57087;SDS011;42965;52.846;6.614;2023-01-10T11:14:01;24.73;;;9.05;;
57087;SDS011;42965;52.846;6.614;2023-01-10T11:16:33;23.60;;;8.85;;
57087;SDS011;42965;52.846;6.614;2023-01-10T11:19:18;26.85;;;9.50;;
57087;SDS011;42965;52.846;6.614;2023-01-10T11:21:47;28.63;;;8.43;;
57087;SDS011;42965;52.846;6.614;2023-01-10T11:24:22;23.70;;;8.75;;
57087;SDS011;42965;52.846;6.614;2023-01-10T11:27:04;27.92;;;8.20;;
57087;SDS011;42965;52.846;6.614;2023-01-10T11:29:48;24.73;;;8.63;;
57087;SDS011;42965;52.846;6.614;2023-01-10T11:32:16;22.70;;;8.20;;
57087;SDS011;42965;52.846;6.614;2023-01-10T11:34:55;26.73;;;7.88;;
57087;SDS011;42965;52.846;6.614;2023-01-10T11:40:08;22.67;;;7.82;;
57087;SDS011;42965;52.846;6.614;2023-01-10T11:42:39;23.95;;;7.55;;
57087;SDS011;42965;52.846;6.614;2023-01-10T11:45:18;20.58;;;7.82;;
57087;SDS011;42965;52.846;6.614;2023-01-10T11:50:38;29.20;;;7.63;;
57087;SDS011;42965;52.846;6.614;2023-01-10T11:53:25;31.70;;;7.80;;
57087;SDS011;42965;52.846;6.614;2023-01-10T11:56:05;24.50;;;7.10;;
57087;SDS011;42965;52.846;6.614;2023-01-10T11:58:37;26.00;;;8.43;;
57087;SDS011;42965;52.846;6.614;2023-01-10T12:01:04;23.00;;;7.47;;
57087;SDS011;42965;52.846;6.614;2023-01-10T12:03:34;23.55;;;7.85;;
57087;SDS011;42965;52.846;6.614;2023-01-10T12:06:14;29.10;;;7.25;;
57087;SDS011;42965;52.846;6.614;2023-01-10T12:08:42;26.02;;;7.20;;
57087;SDS011;42965;52.846;6.614;2023-01-10T12:16:21;21.67;;;6.55;;
57087;SDS011;42965;52.846;6.614;2023-01-10T12:18:55;19.77;;;5.40;;
57087;SDS011;42965;52.846;6.614;2023-01-10T12:24:21;22.70;;;5.80;;
57087;SDS011;42965;52.846;6.614;2023-01-10T12:26:50;19.23;;;5.18;;
57087;SDS011;42965;52.846;6.614;2023-01-10T12:29:25;27.27;;;6.10;;
57087;SDS011;42965;52.846;6.614;2023-01-10T12:31:53;27.05;;;6.53;;
57087;SDS011;42965;52.846;6.614;2023-01-10T12:34:24;21.55;;;7.05;;
57087;SDS011;42965;52.846;6.614;2023-01-10T12:37:00;25.52;;;7.22;;
57087;SDS011;42965;52.846;6.614;2023-01-10T12:39:38;22.80;;;6.60;;
57087;SDS011;42965;52.846;6.614;2023-01-10T12:42:13;22.88;;;6.97;;
57087;SDS011;42965;52.846;6.614;2023-01-10T12:48:04;24.60;;;8.02;;
57087;SDS011;42965;52.846;6.614;2023-01-10T12:50:36;22.77;;;7.07;;
57087;SDS011;42965;52.846;6.614;2023-01-10T12:55:54;29.92;;;8.38;;
57087;SDS011;42965;52.846;6.614;2023-01-10T12:58:26;17.48;;;6.80;;
57087;SDS011;42965;52.846;6.614;2023-01-10T13:01:03;24.75;;;7.38;;
57087;SDS011;42965;52.846;6.614;2023-01-10T13:03:33;23.15;;;7.03;;
57087;SDS011;42965;52.846;6.614;2023-01-10T13:06:02;28.02;;;7.63;;
57087;SDS011;42965;52.846;6.614;2023-01-10T13:08:31;24.80;;;7.90;;
57087;SDS011;42965;52.846;6.614;2023-01-10T13:10:59;23.35;;;6.90;;
57087;SDS011;42965;52.846;6.614;2023-01-10T13:16:11;24.92;;;8.60;;
57087;SDS011;42965;52.846;6.614;2023-01-10T13:18:58;32.00;;;7.75;;
57087;SDS011;42965;52.846;6.614;2023-01-10T13:21:30;27.40;;;6.30;;
57087;SDS011;42965;52.846;6.614;2023-01-10T13:23:59;26.13;;;7.05;;
57087;SDS011;42965;52.846;6.614;2023-01-10T13:27:14;24.63;;;6.03;;
57087;SDS011;42965;52.846;6.614;2023-01-10T13:34:25;23.50;;;7.53;;
57087;SDS011;42965;52.846;6.614;2023-01-10T13:36:57;25.25;;;6.82;;
57087;SDS011;42965;52.846;6.614;2023-01-10T13:39:34;21.30;;;6.65;;
57087;SDS011;42965;52.846;6.614;2023-01-10T13:52:50;22.50;;;5.95;;
57087;SDS011;42965;52.846;6.614;2023-01-10T13:55:23;18.65;;;5.10;;
57087;SDS011;42965;52.846;6.614;2023-01-10T14:01:16;23.00;;;5.55;;
57087;SDS011;42965;52.846;6.614;2023-01-10T14:04:17;25.70;;;5.95;;
57087;SDS011;42965;52.846;6.614;2023-01-10T14:06:44;24.15;;;4.90;;
57087;SDS011;42965;52.846;6.614;2023-01-10T14:09:43;29.67;;;5.35;;
57087;SDS011;42965;52.846;6.614;2023-01-10T14:12:18;22.27;;;5.30;;
57087;SDS011;42965;52.846;6.614;2023-01-10T14:14:49;23.05;;;5.35;;
57087;SDS011;42965;52.846;6.614;2023-01-10T14:17:24;19.40;;;4.53;;
57087;SDS011;42965;52.846;6.614;2023-01-10T14:25:31;23.73;;;5.63;;
57087;SDS011;42965;52.846;6.614;2023-01-10T14:27:59;19.13;;;5.22;;
57087;SDS011;42965;52.846;6.614;2023-01-10T14:30:31;26.27;;;6.00;;
57087;SDS011;42965;52.846;6.614;2023-01-10T14:33:11;26.63;;;7.35;;
57087;SDS011;42965;52.846;6.614;2023-01-10T14:35:49;20.63;;;5.22;;
57087;SDS011;42965;52.846;6.614;2023-01-10T14:38:26;24.65;;;5.63;;
57087;SDS011;42965;52.846;6.614;2023-01-10T14:41:05;21.40;;;6.47;;
57087;SDS011;42965;52.846;6.614;2023-01-10T14:43:41;20.58;;;6.82;;
57087;SDS011;42965;52.846;6.614;2023-01-10T14:52:20;25.42;;;6.90;;
57087;SDS011;42965;52.846;6.614;2023-01-10T14:57:54;19.95;;;4.85;;
57087;SDS011;42965;52.846;6.614;2023-01-10T15:00:28;20.25;;;6.15;;
57087;SDS011;42965;52.846;6.614;2023-01-10T15:02:57;17.20;;;4.78;;
57087;SDS011;42965;52.846;6.614;2023-01-10T15:05:27;19.10;;;5.28;;
57087;SDS011;42965;52.846;6.614;2023-01-10T15:10:46;28.15;;;5.10;;
57087;SDS011;42965;52.846;6.614;2023-01-10T15:13:17;20.63;;;4.47;;
57087;SDS011;42965;52.846;6.614;2023-01-10T15:15:46;22.58;;;5.68;;
57087;SDS011;42965;52.846;6.614;2023-01-10T15:20:58;24.35;;;5.38;;
57087;SDS011;42965;52.846;6.614;2023-01-10T15:23:32;20.63;;;4.65;;
57087;SDS011;42965;52.846;6.614;2023-01-10T15:26:07;24.63;;;5.85;;
57087;SDS011;42965;52.846;6.614;2023-01-10T15:28:44;21.17;;;5.32;;
57087;SDS011;42965;52.846;6.614;2023-01-10T15:31:29;31.23;;;6.05;;
57087;SDS011;42965;52.846;6.614;2023-01-10T15:33:55;18.92;;;5.32;;
57087;SDS011;42965;52.846;6.614;2023-01-10T15:36:24;19.50;;;4.57;;
57087;SDS011;42965;52.846;6.614;2023-01-10T15:38:52;25.33;;;5.68;;
57087;SDS011;42965;52.846;6.614;2023-01-10T15:41:21;25.15;;;5.18;;
57087;SDS011;42965;52.846;6.614;2023-01-10T15:43:48;24.40;;;5.50;;
57087;SDS011;42965;52.846;6.614;2023-01-10T15:46:25;25.83;;;5.68;;
57087;SDS011;42965;52.846;6.614;2023-01-10T15:48:59;23.85;;;4.72;;
57087;SDS011;42965;52.846;6.614;2023-01-10T15:54:04;24.00;;;5.97;;
57087;SDS011;42965;52.846;6.614;2023-01-10T15:56:51;27.15;;;5.53;;
57087;SDS011;42965;52.846;6.614;2023-01-10T15:59:28;19.15;;;5.05;;
57087;SDS011;42965;52.846;6.614;2023-01-10T16:04:49;20.92;;;4.63;;
57087;SDS011;42965;52.846;6.614;2023-01-10T16:07:29;18.92;;;4.68;;
57087;SDS011;42965;52.846;6.614;2023-01-10T16:15:20;15.40;;;4.80;;
57087;SDS011;42965;52.846;6.614;2023-01-10T16:17:49;19.60;;;5.10;;
57087;SDS011;42965;52.846;6.614;2023-01-10T16:20:17;20.52;;;4.78;;
57087;SDS011;42965;52.846;6.614;2023-01-10T16:22:46;25.92;;;5.20;;
57087;SDS011;42965;52.846;6.614;2023-01-10T16:25:14;18.10;;;5.72;;
57087;SDS011;42965;52.846;6.614;2023-01-10T16:27:42;28.52;;;6.00;;
57087;SDS011;42965;52.846;6.614;2023-01-10T16:32:49;21.77;;;4.60;;
57087;SDS011;42965;52.846;6.614;2023-01-10T16:35:36;23.73;;;5.03;;
57087;SDS011;42965;52.846;6.614;2023-01-10T16:38:02;22.73;;;6.35;;
57087;SDS011;42965;52.846;6.614;2023-01-10T16:40:32;21.35;;;5.85;;
57087;SDS011;42965;52.846;6.614;2023-01-10T16:43:02;20.52;;;5.20;;
57087;SDS011;42965;52.846;6.614;2023-01-10T16:45:52;24.63;;;5.18;;
57087;SDS011;42965;52.846;6.614;2023-01-10T16:48:27;16.23;;;4.00;;
57087;SDS011;42965;52.846;6.614;2023-01-10T16:51:03;18.13;;;4.38;;
57087;SDS011;42965;52.846;6.614;2023-01-10T16:53:38;22.88;;;5.47;;
57087;SDS011;42965;52.846;6.614;2023-01-10T16:56:04;18.88;;;4.47;;
57087;SDS011;42965;52.846;6.614;2023-01-10T16:58:34;24.00;;;6.32;;
57087;SDS011;42965;52.846;6.614;2023-01-10T17:01:00;25.90;;;5.07;;
57087;SDS011;42965;52.846;6.614;2023-01-10T17:03:27;23.30;;;4.85;;
57087;SDS011;42965;52.846;6.614;2023-01-10T17:06:02;19.73;;;4.47;;
57087;SDS011;42965;52.846;6.614;2023-01-10T17:08:30;25.73;;;4.53;;
57087;SDS011;42965;52.846;6.614;2023-01-10T17:11:00;17.48;;;4.93;;
57087;SDS011;42965;52.846;6.614;2023-01-10T17:13:29;19.20;;;4.47;;
57087;SDS011;42965;52.846;6.614;2023-01-10T17:16:01;22.10;;;4.60;;
57087;SDS011;42965;52.846;6.614;2023-01-10T17:18:27;13.45;;;3.80;;
57087;SDS011;42965;52.846;6.614;2023-01-10T17:20:55;16.30;;;3.83;;
57087;SDS011;42965;52.846;6.614;2023-01-10T17:23:23;22.88;;;4.65;;
57087;SDS011;42965;52.846;6.614;2023-01-10T17:25:56;14.95;;;3.63;;
57087;SDS011;42965;52.846;6.614;2023-01-10T17:28:28;18.35;;;3.70;;